Terminal Aerodrome Forecast
Issued by NWS

Home | Current Version | Previous Version | Text Only | Print | Product List | Glossary On
Versions: 1 2 3 4 5 6 7 8 9 10 11 12 13 14
000
FTUS46 KMTR 282338
TAFSNS
TAF
KSNS 282338Z 2900/2924 28012KT P6SM FEW250
     FM290300 28008KT P6SM FEW250
     FM291300 VRB04KT P6SM SCT008 BKN250
     FM291900 29014G19KT P6SM SCT250=

USA.gov is the U.S. government's official web portal to all federal, state and local government web resources and services.